Time;durP1;ratioP1;P1;durP2;ratioP2;P2;SDS_P1;SDS_P2;PMS_P1;PMS_P2;Temp;Humidity;BMP_temperature;BMP_pressure;BME280_temperature;BME280_humidity;BME280_pressure;Samples;Min_cycle;Max_cycle;Signal;HPM_P1;HPM_P2
2021/07/04 00:00:19;;;;;;;;;;;25.00;99.90;;;;;;5090436;28;19916;-72
2021/07/04 00:02:45;;;;;;;;;;;25.00;99.90;;;;;;5083802;28;19916;-72
2021/07/04 00:05:12;;;;;;;;;;;25.00;99.90;;;;;;5084313;28;19912;-72
2021/07/04 00:07:41;;;;;;;;;;;25.00;99.90;;;;;;5091525;28;19949;-73
2021/07/04 00:10:07;;;;;;;;;;;25.00;99.90;;;;;;5091455;28;20361;-72
2021/07/04 00:12:33;;;;;;;;;;;24.80;99.90;;;;;;5089558;28;19916;-72
2021/07/04 00:14:58;;;;;;;;;;;24.70;99.90;;;;;;5091104;28;20405;-73
2021/07/04 00:17:24;;;;;;;;;;;24.60;99.90;;;;;;5091999;28;19916;-73
2021/07/04 00:19:49;;;;;;;;;;;24.50;99.90;;;;;;5084670;28;20294;-74
2021/07/04 00:22:15;;;;;;;;;;;24.40;99.90;;;;;;5092507;28;19929;-72
2021/07/04 00:24:41;;;;;;;;;;;24.40;99.90;;;;;;5088837;28;20316;-73
2021/07/04 00:27:06;;;;;;;;;;;24.40;99.90;;;;;;5083594;28;19921;-73
2021/07/04 00:29:32;;;;;;;;;;;24.40;99.90;;;;;;5090273;28;19919;-74
2021/07/04 00:31:57;;;;;;;;;;;24.40;99.90;;;;;;5084881;28;19934;-73
2021/07/04 00:34:23;;;;;;;;;;;24.40;99.90;;;;;;5092477;28;19908;-74
2021/07/04 00:36:48;;;;;;;;;;;24.40;99.90;;;;;;5091688;28;19958;-72
2021/07/04 00:39:14;;;;;;;;;;;24.40;99.90;;;;;;5087232;28;19963;-73
2021/07/04 00:41:40;;;;;;;;;;;24.40;99.90;;;;;;5088183;28;19916;-73
2021/07/04 00:44:05;;;;;;;;;;;24.40;99.90;;;;;;5072416;28;19919;-72
2021/07/04 00:46:31;;;;;;;;;;;24.30;99.90;;;;;;5079842;28;19916;-72
2021/07/04 00:49:01;;;;;;;;;;;24.30;99.90;;;;;;5091292;28;19920;-73
2021/07/04 00:51:27;;;;;;;;;;;24.30;99.90;;;;;;5082386;28;19924;-72
2021/07/04 00:53:52;;;;;;;;;;;24.30;99.90;;;;;;5076734;28;19916;-72
2021/07/04 00:56:18;;;;;;;;;;;24.30;99.90;;;;;;5081418;28;20128;-72
2021/07/04 00:58:43;;;;;;;;;;;24.40;99.90;;;;;;5087859;28;19947;-72
2021/07/04 01:01:09;;;;;;;;;;;24.40;99.90;;;;;;5084099;28;19917;-73
2021/07/04 01:03:35;;;;;;;;;;;24.40;99.90;;;;;;5073474;28;19916;-75
2021/07/04 01:06:00;;;;;;;;;;;24.30;99.90;;;;;;5092281;28;19908;-72
2021/07/04 01:08:27;;;;;;;;;;;24.30;99.90;;;;;;5091804;28;19912;-71
2021/07/04 01:10:52;;;;;;;;;;;24.30;99.90;;;;;;5073259;28;19912;-72
2021/07/04 01:13:18;;;;;;;;;;;24.30;99.90;;;;;;5079917;28;20069;-72
2021/07/04 01:15:45;;;;;;;;;;;24.20;99.90;;;;;;5087316;28;20370;-73
2021/07/04 01:18:11;;;;;;;;;;;24.20;99.90;;;;;;5089869;28;20007;-72
2021/07/04 01:20:37;;;;;;;;;;;24.20;99.90;;;;;;5091553;28;19935;-72
2021/07/04 01:23:11;;;;;;;;;;;24.20;99.90;;;;;;5078953;28;19916;-73
2021/07/04 01:25:38;;;;;;;;;;;24.20;99.90;;;;;;5072600;28;19927;-73
2021/07/04 01:28:04;;;;;;;;;;;24.00;99.90;;;;;;5090970;28;19908;-72
2021/07/04 01:30:30;;;;;;;;;;;24.00;99.90;;;;;;5084508;28;20438;-73
2021/07/04 01:32:56;;;;;;;;;;;24.00;99.90;;;;;;5071076;28;19952;-72
2021/07/04 01:35:22;;;;;;;;;;;24.00;99.90;;;;;;5071360;28;19909;-73
2021/07/04 01:37:47;;;;;;;;;;;24.00;99.90;;;;;;5070971;28;20317;-73
2021/07/04 01:40:14;;;;;;;;;;;24.00;99.90;;;;;;5086789;28;20306;-72
2021/07/04 01:42:41;;;;;;;;;;;24.10;99.90;;;;;;5091198;28;20388;-72
2021/07/04 01:45:07;;;;;;;;;;;24.00;99.90;;;;;;5076621;28;20386;-73
2021/07/04 01:47:39;;;;;;;;;;;23.90;99.90;;;;;;5072224;28;19924;-74
2021/07/04 01:50:10;;;;;;;;;;;23.80;99.90;;;;;;5082416;28;19916;-72
2021/07/04 01:52:36;;;;;;;;;;;23.80;99.90;;;;;;5090446;28;19912;-72
2021/07/04 01:55:04;;;;;;;;;;;23.70;99.90;;;;;;5090617;28;20345;-74
2021/07/04 01:57:30;;;;;;;;;;;23.60;99.90;;;;;;5087417;28;19912;-73
2021/07/04 01:59:59;;;;;;;;;;;23.40;99.90;;;;;;5090731;28;20292;-73
2021/07/04 02:02:25;;;;;;;;;;;23.20;99.90;;;;;;5073012;28;19916;-72
2021/07/04 02:04:50;;;;;;;;;;;23.00;99.90;;;;;;5082472;28;19908;-73
2021/07/04 02:07:17;;;;;;;;;;;22.90;99.90;;;;;;5091028;28;19968;-74
2021/07/04 02:09:49;;;;;;;;;;;22.80;99.90;;;;;;5075999;28;19912;-74
2021/07/04 02:12:16;;;;;;;;;;;22.70;99.90;;;;;;5089043;28;19916;-72
2021/07/04 02:14:42;;;;;;;;;;;22.70;99.90;;;;;;5090911;28;20012;-72
2021/07/04 02:17:08;;;;;;;;;;;22.70;99.90;;;;;;5083347;28;19927;-72
2021/07/04 02:19:34;;;;;;;;;;;22.60;99.90;;;;;;5070677;28;19909;-72
2021/07/04 02:22:00;;;;;;;;;;;22.60;99.90;;;;;;5071074;28;19927;-73
2021/07/04 02:24:26;;;;;;;;;;;22.40;99.90;;;;;;5071302;28;19908;-73
2021/07/04 02:26:52;;;;;;;;;;;22.20;99.90;;;;;;5079226;28;19913;-72
2021/07/04 02:29:18;;;;;;;;;;;21.90;99.90;;;;;;5090592;28;20316;-72
2021/07/04 02:31:43;;;;;;;;;;;21.70;99.90;;;;;;5091059;28;19908;-75
2021/07/04 02:34:09;;;;;;;;;;;21.40;99.90;;;;;;5089606;28;19919;-72
2021/07/04 02:36:34;;;;;;;;;;;21.30;99.90;;;;;;5084279;28;20424;-73
2021/07/04 02:39:00;;;;;;;;;;;21.20;99.90;;;;;;5073533;28;20007;-73
2021/07/04 02:41:26;;;;;;;;;;;21.10;99.90;;;;;;5075006;28;19924;-73
2021/07/04 02:43:51;;;;;;;;;;;20.90;99.90;;;;;;5075045;28;19913;-74
2021/07/04 02:46:17;;;;;;;;;;;20.80;99.90;;;;;;5076328;28;20436;-73
2021/07/04 02:48:42;;;;;;;;;;;20.70;99.90;;;;;;5078446;28;19912;-73
2021/07/04 02:51:08;;;;;;;;;;;20.60;99.90;;;;;;5090435;28;20449;-73
2021/07/04 02:53:33;;;;;;;;;;;20.50;99.90;;;;;;5095062;28;19947;-74
2021/07/04 02:55:59;;;;;;;;;;;20.60;99.90;;;;;;5092822;28;19920;-73
2021/07/04 02:58:25;;;;;;;;;;;20.80;99.90;;;;;;5092784;28;19958;-73
2021/07/04 03:00:50;;;;;;;;;;;20.90;99.90;;;;;;5094033;28;20362;-72
2021/07/04 03:03:16;;;;;;;;;;;20.80;99.90;;;;;;5094210;28;20259;-73
2021/07/04 03:05:41;;;;;;;;;;;20.90;99.90;;;;;;5094402;28;19912;-73
2021/07/04 03:08:07;;;;;;;;;;;20.90;99.90;;;;;;5094242;28;19915;-73
2021/07/04 03:10:33;;;;;;;;;;;21.00;99.90;;;;;;5093589;28;20641;-72
2021/07/04 03:12:59;;;;;;;;;;;20.90;99.90;;;;;;5074174;28;19981;-73
2021/07/04 03:15:24;;;;;;;;;;;21.00;99.90;;;;;;5079757;28;19943;-72
2021/07/04 03:17:50;;;;;;;;;;;20.90;99.90;;;;;;5083001;28;20007;-73
2021/07/04 03:20:16;;;;;;;;;;;20.80;99.90;;;;;;5073823;28;20354;-72
2021/07/04 03:22:42;;;;;;;;;;;20.80;99.90;;;;;;5073881;28;19920;-72
2021/07/04 03:25:08;;;;;;;;;;;20.80;99.90;;;;;;5073642;28;20050;-74
2021/07/04 03:27:34;;;;;;;;;;;20.90;99.90;;;;;;5086387;28;19999;-72
2021/07/04 03:30:00;;;;;;;;;;;20.80;99.90;;;;;;5093786;28;19982;-72
2021/07/04 03:32:25;;;;;;;;;;;20.70;99.90;;;;;;5091340;28;19912;-72
2021/07/04 03:34:51;;;;;;;;;;;20.70;99.90;;;;;;5093721;28;19921;-72
2021/07/04 03:37:17;;;;;;;;;;;20.90;99.90;;;;;;5093649;28;19947;-75
2021/07/04 03:39:43;;;;;;;;;;;21.10;99.90;;;;;;5093580;28;20309;-72
2021/07/04 03:42:10;;;;;;;;;;;21.00;99.90;;;;;;5087503;28;20339;-72
2021/07/04 03:44:36;;;;;;;;;;;20.80;99.90;;;;;;5075656;28;19943;-72
2021/07/04 03:47:02;;;;;;;;;;;20.60;99.90;;;;;;5089628;28;20366;-72
2021/07/04 03:49:27;;;;;;;;;;;20.60;99.90;;;;;;5075777;28;19966;-72
2021/07/04 03:51:53;;;;;;;;;;;20.50;99.90;;;;;;5089407;28;19919;-72
2021/07/04 03:54:19;;;;;;;;;;;20.50;99.90;;;;;;5090072;28;19919;-72
2021/07/04 03:56:44;;;;;;;;;;;20.50;99.90;;;;;;5088458;28;19951;-72
2021/07/04 03:59:10;;;;;;;;;;;20.50;99.90;;;;;;5088983;28;20285;-71
2021/07/04 04:01:35;;;;;;;;;;;20.50;99.90;;;;;;5081129;28;20065;-73
2021/07/04 04:04:01;;;;;;;;;;;20.70;99.90;;;;;;5073105;28;19908;-73
2021/07/04 04:06:27;;;;;;;;;;;20.90;99.90;;;;;;5073036;28;19966;-73
2021/07/04 04:08:52;;;;;;;;;;;21.10;99.90;;;;;;5092969;28;20369;-73
2021/07/04 04:11:18;;;;;;;;;;;21.10;99.90;;;;;;5081213;28;20007;-73
2021/07/04 04:13:43;;;;;;;;;;;21.10;99.90;;;;;;5072656;28;19918;-72
2021/07/04 04:16:09;;;;;;;;;;;21.10;99.90;;;;;;5071285;28;19961;-72
2021/07/04 04:18:38;;;;;;;;;;;21.00;99.90;;;;;;5080201;28;19920;-72
2021/07/04 04:21:07;;;;;;;;;;;21.00;99.90;;;;;;5092447;28;19965;-72
2021/07/04 04:23:33;;;;;;;;;;;21.00;99.90;;;;;;5091612;28;19930;-72
2021/07/04 04:25:59;;;;;;;;;;;21.00;99.90;;;;;;5092855;28;19939;-71
2021/07/04 04:28:24;;;;;;;;;;;21.00;99.90;;;;;;5084899;28;20408;-72
2021/07/04 04:30:50;;;;;;;;;;;21.10;99.90;;;;;;5090421;28;19912;-72
2021/07/04 04:33:16;;;;;;;;;;;21.10;99.90;;;;;;5074382;28;19913;-72
2021/07/04 04:35:41;;;;;;;;;;;21.10;99.90;;;;;;5071019;28;19909;-73
2021/07/04 04:38:07;;;;;;;;;;;21.00;99.90;;;;;;5072425;28;19921;-73
2021/07/04 04:40:33;;;;;;;;;;;21.10;99.90;;;;;;5071434;28;20359;-73
2021/07/04 04:42:58;;;;;;;;;;;21.20;99.90;;;;;;5072766;28;19918;-73
2021/07/04 04:45:24;;;;;;;;;;;21.20;99.90;;;;;;5073821;28;20435;-72
2021/07/04 04:47:49;;;;;;;;;;;21.00;99.90;;;;;;5071926;28;19920;-72
2021/07/04 04:50:15;;;;;;;;;;;21.00;99.90;;;;;;5070859;28;19909;-73
2021/07/04 04:52:41;;;;;;;;;;;21.10;99.90;;;;;;5073227;28;19950;-73
2021/07/04 04:55:07;;;;;;;;;;;21.20;99.90;;;;;;5083301;28;19936;-72
2021/07/04 04:57:33;;;;;;;;;;;21.30;99.90;;;;;;5071503;28;19916;-73
2021/07/04 04:59:59;;;;;;;;;;;21.20;99.90;;;;;;5089143;28;19919;-74
2021/07/04 05:02:24;;;;;;;;;;;21.20;99.90;;;;;;5091282;28;19916;-74
2021/07/04 05:04:50;;;;;;;;;;;21.20;99.90;;;;;;5092942;28;19908;-74
2021/07/04 05:07:16;;;;;;;;;;;21.20;99.90;;;;;;5090497;28;20298;-73
2021/07/04 05:09:41;;;;;;;;;;;21.30;99.90;;;;;;5087121;28;20390;-73
2021/07/04 05:12:07;;;;;;;;;;;21.40;99.90;;;;;;5091409;28;19908;-74
2021/07/04 05:14:32;;;;;;;;;;;21.50;99.90;;;;;;5078880;28;20012;-73
2021/07/04 05:16:58;;;;;;;;;;;21.40;99.90;;;;;;5071270;28;19913;-76
2021/07/04 05:19:24;;;;;;;;;;;21.50;99.90;;;;;;5072574;28;19916;-73
2021/07/04 05:21:49;;;;;;;;;;;21.50;99.90;;;;;;5083864;28;19919;-74
2021/07/04 05:24:15;;;;;;;;;;;21.60;99.90;;;;;;5086270;28;19920;-73
2021/07/04 05:26:40;;;;;;;;;;;21.60;99.90;;;;;;5083063;28;19912;-74
2021/07/04 05:29:06;;;;;;;;;;;21.60;99.90;;;;;;5089886;28;19916;-74
2021/07/04 05:31:32;;;;;;;;;;;21.70;99.90;;;;;;5090252;28;19994;-74
2021/07/04 05:33:58;;;;;;;;;;;21.70;99.90;;;;;;5083322;28;19944;-73
2021/07/04 05:36:23;;;;;;;;;;;21.70;99.90;;;;;;5071262;28;19909;-73
2021/07/04 05:38:49;;;;;;;;;;;21.70;99.90;;;;;;5071438;28;19993;-75
2021/07/04 05:41:15;;;;;;;;;;;21.70;99.90;;;;;;5071271;28;19912;-73
2021/07/04 05:43:42;;;;;;;;;;;21.80;99.90;;;;;;5072313;28;19919;-73
2021/07/04 05:46:08;;;;;;;;;;;21.90;99.90;;;;;;5083756;28;19908;-75
2021/07/04 05:48:34;;;;;;;;;;;22.00;99.90;;;;;;5081382;28;19995;-73
2021/07/04 05:50:59;;;;;;;;;;;21.90;99.90;;;;;;5089033;28;19912;-74
2021/07/04 05:53:25;;;;;;;;;;;21.90;99.90;;;;;;5088874;28;19974;-73
2021/07/04 05:55:51;;;;;;;;;;;22.00;99.90;;;;;;5089601;28;19932;-73
2021/07/04 05:58:17;;;;;;;;;;;21.90;99.90;;;;;;5093322;28;19912;-73
2021/07/04 06:00:42;;;;;;;;;;;22.00;99.90;;;;;;5101620;28;19945;-73
2021/07/04 06:03:08;;;;;;;;;;;21.80;99.90;;;;;;5091400;28;20621;-73
2021/07/04 06:05:34;;;;;;;;;;;21.80;99.90;;;;;;5092361;28;19912;-73
2021/07/04 06:07:59;;;;;;;;;;;21.80;99.90;;;;;;5090236;28;19912;-72
2021/07/04 06:10:25;;;;;;;;;;;21.90;99.90;;;;;;5089714;28;19908;-73
2021/07/04 06:12:51;;;;;;;;;;;21.90;99.90;;;;;;5090732;28;19920;-74
2021/07/04 06:15:16;;;;;;;;;;;21.90;99.90;;;;;;5087602;28;20684;-73
2021/07/04 06:17:42;;;;;;;;;;;22.00;99.90;;;;;;5090728;28;19999;-73
2021/07/04 06:20:09;;;;;;;;;;;22.00;99.90;;;;;;5075541;28;19940;-73
2021/07/04 06:22:36;;;;;;;;;;;22.20;99.90;;;;;;5079349;28;19917;-73
2021/07/04 06:25:03;;;;;;;;;;;22.10;99.90;;;;;;5090841;28;20290;-73
2021/07/04 06:27:28;;;;;;;;;;;22.20;99.90;;;;;;5094630;28;20282;-74
2021/07/04 06:29:54;;;;;;;;;;;22.20;99.90;;;;;;5080873;28;19995;-73
2021/07/04 06:32:19;;;;;;;;;;;22.30;99.90;;;;;;5091432;28;19934;-72
2021/07/04 06:34:45;;;;;;;;;;;22.30;99.90;;;;;;5112827;28;19951;-73
2021/07/04 06:37:10;;;;;;;;;;;22.50;99.90;;;;;;5072790;28;19916;-73
2021/07/04 06:39:36;;;;;;;;;;;22.80;99.90;;;;;;5074199;28;20511;-73
2021/07/04 06:42:02;;;;;;;;;;;22.90;99.90;;;;;;5081103;28;19951;-73
2021/07/04 06:44:27;;;;;;;;;;;22.90;99.90;;;;;;5079106;28;20406;-71
2021/07/04 06:46:53;;;;;;;;;;;23.20;99.90;;;;;;5092767;28;20267;-71
2021/07/04 06:49:19;;;;;;;;;;;23.60;99.90;;;;;;5093961;28;19912;-71
2021/07/04 06:51:44;;;;;;;;;;;23.90;99.90;;;;;;5094422;28;19916;-66
2021/07/04 06:54:10;;;;;;;;;;;24.20;99.90;;;;;;5088063;28;19912;-70
2021/07/04 06:56:35;;;;;;;;;;;24.10;99.90;;;;;;5086817;28;19972;-69
2021/07/04 06:59:01;;;;;;;;;;;24.00;99.90;;;;;;5092926;28;19909;-68
2021/07/04 07:01:26;;;;;;;;;;;24.00;99.90;;;;;;5083822;28;19927;-70
2021/07/04 07:03:52;;;;;;;;;;;24.00;99.90;;;;;;5074053;28;20368;-69
2021/07/04 07:06:17;;;;;;;;;;;24.10;99.90;;;;;;5073724;28;20327;-69
2021/07/04 07:08:43;;;;;;;;;;;24.20;99.90;;;;;;5086386;28;19915;-69
2021/07/04 07:11:09;;;;;;;;;;;24.30;99.90;;;;;;5092228;28;19952;-69
2021/07/04 07:13:35;;;;;;;;;;;24.50;99.90;;;;;;5080753;28;19917;-68
2021/07/04 07:16:00;;;;;;;;;;;24.50;99.90;;;;;;5092413;28;19958;-69
2021/07/04 07:18:26;;;;;;;;;;;24.60;99.90;;;;;;5081172;28;19924;-69
2021/07/04 07:20:52;;;;;;;;;;;24.60;99.90;;;;;;5073597;28;19950;-69
2021/07/04 07:23:17;;;;;;;;;;;24.70;99.90;;;;;;5083154;28;19916;-70
2021/07/04 07:25:43;;;;;;;;;;;24.80;99.90;;;;;;5094863;28;19930;-70
2021/07/04 07:28:08;;;;;;;;;;;24.80;99.90;;;;;;5078480;28;20038;-69
2021/07/04 07:30:34;;;;;;;;;;;24.60;99.90;;;;;;5074642;28;19909;-69
2021/07/04 07:33:00;;;;;;;;;;;24.60;99.90;;;;;;5080559;28;19937;-69
2021/07/04 07:35:25;;;;;;;;;;;24.50;99.90;;;;;;5091013;28;20378;-69
2021/07/04 07:37:52;;;;;;;;;;;24.40;99.90;;;;;;5094222;28;19942;-68
2021/07/04 07:40:17;;;;;;;;;;;24.30;99.90;;;;;;5094929;28;20343;-69
2021/07/04 07:42:43;;;;;;;;;;;24.10;99.90;;;;;;5090658;28;19927;-68
2021/07/04 07:45:09;;;;;;;;;;;24.20;99.90;;;;;;5095200;28;19930;-69
2021/07/04 07:47:35;;;;;;;;;;;24.20;99.90;;;;;;5091285;28;19913;-70
2021/07/04 07:50:01;;;;;;;;;;;24.30;99.90;;;;;;5074506;28;19999;-68
2021/07/04 07:52:27;;;;;;;;;;;24.40;99.90;;;;;;5075595;28;19912;-69
2021/07/04 07:54:53;;;;;;;;;;;24.60;99.90;;;;;;5094126;28;19908;-69
2021/07/04 07:57:18;;;;;;;;;;;24.60;99.90;;;;;;5094270;28;20004;-69
2021/07/04 07:59:44;;;;;;;;;;;24.80;99.90;;;;;;5085627;28;19960;-69
2021/07/04 08:02:10;;;;;;;;;;;24.70;99.90;;;;;;5090387;28;19923;-70
2021/07/04 08:04:37;;;;;;;;;;;24.60;99.90;;;;;;5091052;28;19913;-70
2021/07/04 08:07:03;;;;;;;;;;;24.80;99.90;;;;;;5094255;28;20008;-67
2021/07/04 08:09:28;;;;;;;;;;;25.00;99.90;;;;;;5092063;28;19915;-68
2021/07/04 08:11:54;;;;;;;;;;;25.20;99.90;;;;;;5088225;28;19909;-67
2021/07/04 08:14:20;;;;;;;;;;;25.50;99.90;;;;;;5077168;28;19952;-67
2021/07/04 08:16:45;;;;;;;;;;;25.70;99.90;;;;;;5092631;28;19912;-67
2021/07/04 08:19:11;;;;;;;;;;;25.70;99.90;;;;;;5092751;28;19916;-68
2021/07/04 08:21:37;;;;;;;;;;;25.70;99.90;;;;;;5080800;28;19917;-67
2021/07/04 08:24:02;;;;;;;;;;;25.70;99.90;;;;;;5072229;28;19912;-67
2021/07/04 08:26:28;;;;;;;;;;;25.60;99.90;;;;;;5072171;28;20012;-69
2021/07/04 08:28:53;;;;;;;;;;;25.50;99.90;;;;;;5072398;28;19908;-67
2021/07/04 08:31:19;;;;;;;;;;;25.50;99.90;;;;;;5079297;28;19935;-67
2021/07/04 08:33:45;;;;;;;;;;;25.70;99.90;;;;;;5092559;28;19908;-66
2021/07/04 08:36:10;;;;;;;;;;;25.80;99.90;;;;;;5097017;28;19915;-68
2021/07/04 08:38:36;;;;;;;;;;;25.60;99.90;;;;;;5112542;28;19912;-68
2021/07/04 08:41:02;;;;;;;;;;;25.70;99.90;;;;;;5094190;28;19958;-68
2021/07/04 08:43:29;;;;;;;;;;;25.70;99.90;;;;;;5089002;28;20053;-66
2021/07/04 08:45:55;;;;;;;;;;;25.70;99.90;;;;;;5092304;28;20298;-67
2021/07/04 08:48:21;;;;;;;;;;;25.70;99.90;;;;;;5092154;28;20390;-67
2021/07/04 08:50:47;;;;;;;;;;;25.60;99.90;;;;;;5085736;28;20469;-67
2021/07/04 08:53:12;;;;;;;;;;;25.30;99.90;;;;;;5087730;28;19912;-66
2021/07/04 08:55:38;;;;;;;;;;;25.10;99.90;;;;;;5091506;28;19912;-66
2021/07/04 08:58:03;;;;;;;;;;;25.00;99.90;;;;;;5082635;28;19966;-69
2021/07/04 09:00:29;;;;;;;;;;;25.00;99.90;;;;;;5093145;28;20312;-67
2021/07/04 09:02:55;;;;;;;;;;;25.30;99.90;;;;;;5093226;28;19958;-67
2021/07/04 09:05:20;;;;;;;;;;;25.50;99.90;;;;;;5102459;28;20405;-66
2021/07/04 09:07:46;;;;;;;;;;;25.60;99.90;;;;;;5088450;28;19966;-67
2021/07/04 09:10:13;;;;;;;;;;;25.90;99.90;;;;;;5091249;28;19952;-68
2021/07/04 09:12:40;;;;;;;;;;;26.00;99.90;;;;;;5075276;28;19965;-67
2021/07/04 09:15:10;;;;;;;;;;;26.10;99.90;;;;;;5082538;28;19916;-67
2021/07/04 09:17:37;;;;;;;;;;;26.30;99.90;;;;;;5091170;28;19919;-67
2021/07/04 09:20:07;;;;;;;;;;;26.60;99.90;;;;;;5074310;28;20343;-67
2021/07/04 09:22:35;;;;;;;;;;;26.90;99.90;;;;;;5070858;28;20255;-67
2021/07/04 09:25:12;;;;;;;;;;;26.80;99.90;;;;;;5078138;28;20205;-65
2021/07/04 09:27:39;;;;;;;;;;;27.00;99.90;;;;;;5085963;28;19912;-66
2021/07/04 09:30:05;;;;;;;;;;;27.10;99.90;;;;;;5091217;28;19965;-67
2021/07/04 09:32:31;;;;;;;;;;;27.00;99.90;;;;;;5091253;28;20019;-66
2021/07/04 09:35:02;;;;;;;;;;;27.30;99.90;;;;;;5087773;28;20023;-65
2021/07/04 09:37:37;;;;;;;;;;;27.40;99.90;;;;;;5079202;28;19912;-67
2021/07/04 09:40:17;;;;;;;;;;;27.50;99.90;;;;;;5071150;28;19908;-66
2021/07/04 09:43:03;;;;;;;;;;;27.50;99.90;;;;;;5069832;28;20018;-66
2021/07/04 09:45:44;;;;;;;;;;;27.30;99.90;;;;;;5086014;28;20289;-66
2021/07/04 09:48:10;;;;;;;;;;;26.90;99.90;;;;;;5090639;28;19915;-67
2021/07/04 09:50:40;;;;;;;;;;;27.00;99.90;;;;;;5090877;28;19969;-67
2021/07/04 09:53:05;;;;;;;;;;;27.00;99.90;;;;;;5088636;28;20296;-67
2021/07/04 09:55:31;;;;;;;;;;;26.90;99.90;;;;;;5075387;28;19917;-66
2021/07/04 09:57:58;;;;;;;;;;;26.90;99.90;;;;;;5070592;28;19913;-66
2021/07/04 10:00:25;;;;;;;;;;;27.00;99.90;;;;;;5070480;28;19909;-68
2021/07/04 10:03:08;;;;;;;;;;;27.00;99.90;;;;;;5076881;28;19920;-66
2021/07/04 10:05:34;;;;;;;;;;;26.90;99.90;;;;;;5080447;28;20053;-65
2021/07/04 10:08:00;;;;;;;;;;;27.00;99.90;;;;;;5085017;28;19912;-66
2021/07/04 10:10:25;;;;;;;;;;;27.20;99.90;;;;;;5090567;28;19931;-67
2021/07/04 10:12:53;;;;;;;;;;;27.30;99.90;;;;;;5088498;28;20378;-66
2021/07/04 10:15:19;;;;;;;;;;;27.50;99.90;;;;;;5082290;28;19912;-66
2021/07/04 10:17:44;;;;;;;;;;;27.60;99.90;;;;;;5089228;28;19924;-66
2021/07/04 10:20:10;;;;;;;;;;;27.70;99.90;;;;;;5090842;28;19907;-67
2021/07/04 10:22:37;;;;;;;;;;;27.70;99.90;;;;;;5089661;28;19920;-67
2021/07/04 10:25:06;;;;;;;;;;;27.90;99.90;;;;;;5088412;28;20003;-66
2021/07/04 10:27:33;;;;;;;;;;;28.10;99.90;;;;;;5087119;28;19912;-67
2021/07/04 10:29:59;;;;;;;;;;;28.20;99.90;;;;;;5089217;28;19920;-67
2021/07/04 10:32:25;;;;;;;;;;;27.90;99.90;;;;;;5083219;28;19958;-68
2021/07/04 10:34:52;;;;;;;;;;;28.10;99.90;;;;;;5087474;28;20289;-69
2021/07/04 10:37:35;;;;;;;;;;;28.10;99.90;;;;;;5089138;28;19915;-66
2021/07/04 10:40:07;;;;;;;;;;;27.90;99.90;;;;;;5083671;28;19913;-68
2021/07/04 10:42:37;;;;;;;;;;;27.70;99.90;;;;;;5086272;28;19922;-67
2021/07/04 10:45:03;;;;;;;;;;;27.50;99.90;;;;;;5087513;28;19950;-68
2021/07/04 10:47:36;;;;;;;;;;;27.60;99.90;;;;;;5091509;28;20468;-68
2021/07/04 10:50:09;;;;;;;;;;;27.40;99.90;;;;;;5086883;28;19946;-68
2021/07/04 10:52:35;;;;;;;;;;;27.50;99.90;;;;;;5088636;28;19912;-67
2021/07/04 10:55:03;;;;;;;;;;;27.60;99.90;;;;;;5090690;28;19965;-67
2021/07/04 10:57:36;;;;;;;;;;;27.70;99.90;;;;;;5091689;28;19909;-69
2021/07/04 11:00:04;;;;;;;;;;;27.70;99.90;;;;;;5089655;28;19913;-69
2021/07/04 11:02:36;;;;;;;;;;;27.70;99.90;;;;;;5090936;28;20370;-67
2021/07/04 11:05:02;;;;;;;;;;;27.80;99.90;;;;;;5087504;28;19912;-68
2021/07/04 11:07:48;;;;;;;;;;;27.70;99.90;;;;;;5093726;28;19914;-68
2021/07/04 11:10:14;;;;;;;;;;;27.60;99.90;;;;;;5090727;28;19916;-71
2021/07/04 11:12:39;;;;;;;;;;;27.30;99.90;;;;;;5090581;28;19920;-71
2021/07/04 11:15:11;;;;;;;;;;;27.10;99.90;;;;;;5088966;28;19937;-72
2021/07/04 11:17:55;;;;;;;;;;;27.00;99.90;;;;;;5087481;28;20007;-71
2021/07/04 11:20:21;;;;;;;;;;;27.30;99.90;;;;;;5090535;28;20492;-71
2021/07/04 11:22:58;;;;;;;;;;;27.20;99.90;;;;;;5088857;28;19912;-71
2021/07/04 11:25:25;;;;;;;;;;;27.10;99.90;;;;;;5091342;28;20005;-70
2021/07/04 11:28:09;;;;;;;;;;;27.10;99.90;;;;;;5077052;28;19917;-70
2021/07/04 11:30:35;;;;;;;;;;;27.10;99.90;;;;;;5082604;28;19920;-69
2021/07/04 11:33:42;;;;;;;;;;;27.30;99.90;;;;;;5088774;28;19914;-70
2021/07/04 11:36:06;;;;;;;;;;;27.40;99.90;;;;;;5086840;28;19965;-71
2021/07/04 11:38:33;;;;;;;;;;;27.40;99.90;;;;;;5090585;28;19915;-70
2021/07/04 11:40:59;;;;;;;;;;;27.70;99.90;;;;;;5090765;28;19958;-69
2021/07/04 11:43:26;;;;;;;;;;;28.00;99.90;;;;;;5090912;28;19916;-71
2021/07/04 11:45:59;;;;;;;;;;;28.20;99.90;;;;;;5092442;28;19919;-71
2021/07/04 11:48:44;;;;;;;;;;;28.00;99.90;;;;;;5089671;28;20273;-71
2021/07/04 11:51:10;;;;;;;;;;;27.70;99.90;;;;;;5088520;28;19912;-70
2021/07/04 11:53:49;;;;;;;;;;;27.80;99.90;;;;;;5093047;28;19951;-72
2021/07/04 11:56:14;;;;;;;;;;;27.80;99.90;;;;;;5089459;28;20002;-70
2021/07/04 11:58:40;;;;;;;;;;;27.80;99.90;;;;;;5092949;28;19908;-68
2021/07/04 12:01:14;;;;;;;;;;;27.80;99.90;;;;;;5087014;28;20003;-69
2021/07/04 12:03:39;;;;;;;;;;;27.90;99.90;;;;;;5085616;28;19916;-69
2021/07/04 12:06:06;;;;;;;;;;;28.00;99.90;;;;;;5090199;28;19916;-70
2021/07/04 12:08:50;;;;;;;;;;;28.10;99.90;;;;;;5091755;28;19998;-68
2021/07/04 12:11:16;;;;;;;;;;;28.50;99.90;;;;;;5090580;28;19918;-70
2021/07/04 12:13:43;;;;;;;;;;;28.30;99.90;;;;;;5089496;28;20369;-71
2021/07/04 12:16:08;;;;;;;;;;;28.50;99.90;;;;;;5092215;28;20362;-67
2021/07/04 12:18:38;;;;;;;5.13;2.53;;;28.80;99.90;;;;;;5086926;28;20428;-68
2021/07/04 12:21:05;;;;;;;5.90;1.90;;;29.00;99.90;;;;;;5087045;28;20100;-68
2021/07/04 12:23:32;;;;;;;3.60;2.45;;;29.10;99.90;;;;;;5090082;28;20107;-69
2021/07/04 12:26:06;;;;;;;2.78;2.05;;;28.80;99.90;;;;;;5089059;28;20032;-70
2021/07/04 12:28:32;;;;;;;3.38;2.13;;;28.80;99.90;;;;;;5090919;28;20395;-70
2021/07/04 12:30:58;;;;;;;2.83;2.28;;;29.10;99.90;;;;;;5091571;28;20076;-72
2021/07/04 12:33:27;;;;;;;2.15;2.03;;;29.10;99.90;;;;;;5086537;28;20052;-68
2021/07/04 12:35:57;;;;;;;4.88;2.83;;;28.80;99.90;;;;;;5088181;28;20393;-69
2021/07/04 12:38:29;;;;;;;3.47;2.78;;;28.60;99.90;;;;;;5088629;28;20024;-69
2021/07/04 12:41:05;;;;;;;2.60;2.13;;;28.60;99.90;;;;;;5089868;28;20035;-70
2021/07/04 12:43:39;;;;;;;2.38;2.17;;;28.60;99.90;;;;;;5088230;28;20027;-69
2021/07/04 12:46:22;;;;;;;7.22;3.22;;;28.60;99.90;;;;;;5091673;28;20025;-69
2021/07/04 12:48:50;;;;;;;3.10;1.88;;;28.70;99.90;;;;;;5088148;28;20020;-69
2021/07/04 12:51:33;;;;;;;1.80;1.67;;;28.50;99.90;;;;;;5089062;28;20012;-68
2021/07/04 12:54:00;;;;;;;7.40;2.28;;;28.60;99.90;;;;;;5089496;28;20020;-70
2021/07/04 12:56:27;;;;;;;3.78;2.63;;;28.60;99.90;;;;;;5087262;28;20035;-70
2021/07/04 12:58:58;;;;;;;3.15;2.20;;;28.50;99.90;;;;;;5090339;28;20035;-68
2021/07/04 13:01:24;;;;;;;5.10;3.17;;;28.30;99.90;;;;;;5087708;28;20012;-69
2021/07/04 13:03:50;;;;;;;4.00;2.45;;;28.10;99.90;;;;;;5086324;28;20449;-70
2021/07/04 13:06:35;;;;;;;3.03;2.08;;;28.10;99.90;;;;;;5088072;28;20063;-69
2021/07/04 13:09:09;;;;;;;6.40;2.45;;;28.10;99.90;;;;;;5089425;28;20486;-69
2021/07/04 13:11:36;;;;;;;2.80;2.10;;;28.10;99.90;;;;;;5070846;28;20085;-68
2021/07/04 13:14:08;;;;;;;3.35;2.38;;;28.20;99.90;;;;;;5089551;28;20111;-69
2021/07/04 13:16:34;;;;;;;2.78;2.03;;;28.10;99.90;;;;;;5088942;28;20638;-70
2021/07/04 13:19:39;;;;;;;4.20;2.63;;;28.10;99.90;;;;;;5088918;28;20127;-69
2021/07/04 13:22:16;;;;;;;4.40;2.47;;;28.20;99.90;;;;;;5066375;28;20570;-69
2021/07/04 13:24:47;;;;;;;2.15;1.95;;;28.30;99.90;;;;;;5060367;28;20055;-69
2021/07/04 13:27:19;;;;;;;2.13;1.92;;;28.50;99.90;;;;;;5079601;28;20044;-70
2021/07/04 13:29:45;;;;;;;3.50;2.60;;;28.50;99.90;;;;;;5089332;28;20088;-68
2021/07/04 13:32:18;;;;;;;4.45;2.33;;;28.60;99.90;;;;;;5089930;28;20438;-69
2021/07/04 13:34:56;;;;;;;4.10;2.75;;;28.90;99.90;;;;;;5085548;28;20464;-70
2021/07/04 13:37:25;;;;;;;4.53;3.08;;;29.00;99.90;;;;;;5089371;28;20103;-71
2021/07/04 13:40:06;;;;;;;2.75;2.35;;;29.40;99.90;;;;;;5091605;28;20026;-69
2021/07/04 13:42:35;;;;;;;3.05;2.58;;;29.00;99.90;;;;;;5093059;28;20084;-70
2021/07/04 13:45:05;;;;;;;3.40;2.65;;;28.90;99.90;;;;;;5092955;28;20438;-70
2021/07/04 13:47:30;;;;;;;3.88;2.70;;;28.40;99.90;;;;;;5087448;28;20028;-69
2021/07/04 13:49:56;;;;;;;3.28;2.53;;;28.30;99.90;;;;;;5090688;28;20457;-69
2021/07/04 13:52:22;;;;;;;4.05;2.30;;;28.20;99.90;;;;;;5086403;28;20052;-69
2021/07/04 13:54:48;;;;;;;3.40;2.42;;;28.10;99.90;;;;;;5088724;28;20038;-69
2021/07/04 13:57:16;;;;;;;3.17;2.90;;;28.10;99.90;;;;;;5088308;28;20020;-70
2021/07/04 13:59:42;;;;;;;3.03;1.77;;;27.90;99.90;;;;;;5090120;28;20347;-69
2021/07/04 14:02:08;;;;;;;2.92;2.33;;;28.20;99.90;;;;;;5089094;28;20031;-69
2021/07/04 14:04:34;;;;;;;5.57;1.70;;;28.20;99.90;;;;;;5088173;28;20020;-70